createdAt,value
2023-01-02T00:00:00.795Z,101761.15
2023-01-02T00:01:05.423Z,101757.94
2023-01-02T00:02:10.184Z,101756.14
2023-01-02T00:03:13.416Z,101753.56
2023-01-02T00:04:16.730Z,101754.86
2023-01-02T00:05:19.829Z,101754.04
2023-01-02T00:06:23.654Z,101762.99
2023-01-02T00:07:26.810Z,101766.35
2023-01-02T00:08:29.805Z,101765.12
2023-01-02T00:09:33.646Z,101762.94
2023-01-02T00:10:36.699Z,101762.98
2023-01-02T00:11:39.868Z,101764.28
2023-01-02T00:12:42.983Z,101763.46
2023-01-02T00:13:46.069Z,101765.11
2023-01-02T00:14:49.532Z,101762.17
2023-01-02T00:15:52.488Z,101764.34
2023-01-02T00:16:55.527Z,101765.13
2023-01-02T00:17:58.464Z,101764.75
2023-01-02T00:19:01.698Z,101760.48
2023-01-02T00:20:05.887Z,101756.70
2023-01-02T00:21:09.471Z,101753.39
2023-01-02T00:22:12.571Z,101756.36
2023-01-02T00:23:15.686Z,101756.50
2023-01-02T00:24:18.840Z,101751.79
2023-01-02T00:25:22.220Z,101759.02
2023-01-02T00:26:25.293Z,101761.02
2023-01-02T00:27:29.963Z,101764.08
2023-01-02T00:28:33.789Z,101765.02
2023-01-02T00:29:36.944Z,101763.06
2023-01-02T00:30:40.182Z,101760.96
2023-01-02T00:31:43.764Z,101763.17
2023-01-02T00:32:46.773Z,101758.92
2023-01-02T00:33:49.748Z,101759.85
2023-01-02T00:34:53.847Z,101760.81
2023-01-02T00:35:57.050Z,101760.64
2023-01-02T00:37:00.111Z,101758.47
2023-01-02T00:38:04.503Z,101759.02
2023-01-02T00:39:07.456Z,101760.45
2023-01-02T00:40:14.127Z,101763.35
2023-01-02T00:41:17.513Z,101766.99
2023-01-02T00:42:21.442Z,101767.98
2023-01-02T00:43:24.835Z,101768.24
2023-01-02T00:44:27.926Z,101765.32
2023-01-02T00:45:30.945Z,101765.10
2023-01-02T00:46:34.395Z,101762.35
2023-01-02T00:47:37.562Z,101763.96
2023-01-02T00:48:40.582Z,101762.93
2023-01-02T00:49:43.644Z,101761.37
2023-01-02T00:50:46.769Z,101756.09
2023-01-02T00:51:50.241Z,101756.68
2023-01-02T00:52:53.582Z,101753.45
2023-01-02T00:53:56.764Z,101750.35
2023-01-02T00:54:59.773Z,101749.02
2023-01-02T00:56:02.861Z,101751.13
2023-01-02T00:57:05.991Z,101747.05
2023-01-02T00:58:08.900Z,101750.98
2023-01-02T00:59:11.914Z,101755.04
2023-01-02T01:00:21.671Z,101754.27
2023-01-02T01:01:28.048Z,101754.04
2023-01-02T01:02:31.867Z,101749.78
2023-01-02T01:03:35.251Z,101750.15
2023-01-02T01:04:38.350Z,101749.33
2023-01-02T01:05:41.389Z,101746.48
2023-01-02T01:06:44.447Z,101745.15
2023-01-02T01:07:47.627Z,101749.81
2023-01-02T01:08:50.660Z,101748.55
2023-01-02T01:09:53.623Z,101753.27
2023-01-02T01:10:56.664Z,101754.67
2023-01-02T01:12:02.296Z,101755.85
2023-01-02T01:13:08.647Z,101758.49
2023-01-02T01:14:11.666Z,101754.73
2023-01-02T01:15:18.407Z,101754.23
2023-01-02T01:16:21.543Z,101751.16
2023-01-02T01:17:24.545Z,101751.31
2023-01-02T01:18:27.959Z,101750.45
2023-01-02T01:19:32.274Z,101747.28
2023-01-02T01:20:38.827Z,101750.11
2023-01-02T01:21:41.961Z,101746.85
2023-01-02T01:22:46.270Z,101746.22
2023-01-02T01:23:54.925Z,101748.72
2023-01-02T01:24:58.193Z,101750.91
2023-01-02T01:26:10.310Z,101752.98
2023-01-02T01:27:15.129Z,101753.73
2023-01-02T01:28:18.212Z,101746.92
2023-01-02T01:29:21.435Z,101748.02
2023-01-02T01:30:24.438Z,101746.30
2023-01-02T01:31:27.609Z,101745.38
2023-01-02T01:32:30.697Z,101744.02
2023-01-02T01:33:34.140Z,101746.11
2023-01-02T01:34:37.383Z,101744.80
2023-01-02T01:35:40.344Z,101750.21
2023-01-02T01:36:44.339Z,101756.94
2023-01-02T01:37:51.022Z,101757.52
2023-01-02T01:38:54.153Z,101750.41
2023-01-02T01:39:57.719Z,101745.30
2023-01-02T01:41:01.752Z,101740.64
2023-01-02T01:42:05.114Z,101733.66
2023-01-02T01:43:14.956Z,101733.58
2023-01-02T01:44:39.811Z,101733.58
2023-01-02T01:45:52.516Z,101730.44
2023-01-02T01:46:55.668Z,101727.39
2023-01-02T01:48:00.990Z,101723.48
2023-01-02T01:49:14.728Z,101724.08
2023-01-02T01:50:25.928Z,101723.33
2023-01-02T01:51:32.002Z,101723.30
2023-01-02T01:52:40.178Z,101723.75
2023-01-02T01:53:46.763Z,101728.09
2023-01-02T01:54:59.565Z,101727.62
2023-01-02T01:56:06.257Z,101728.30
2023-01-02T01:57:33.546Z,101723.04
2023-01-02T01:58:45.146Z,101724.27
2023-01-02T01:59:49.834Z,101729.48
2023-01-02T02:00:53.289Z,101729.19
2023-01-02T02:01:58.093Z,101727.19
2023-01-02T02:03:06.977Z,101728.20
2023-01-02T02:04:11.581Z,101729.09
2023-01-02T02:05:19.335Z,101730.04
2023-01-02T02:06:22.374Z,101731.86
2023-01-02T02:07:25.814Z,101732.19
2023-01-02T02:08:34.443Z,101733.00
2023-01-02T02:09:41.249Z,101738.80
2023-01-02T02:10:47.344Z,101740.35
2023-01-02T02:11:51.752Z,101740.75
2023-01-02T02:12:54.677Z,101742.80
2023-01-02T02:14:00.075Z,101747.02
2023-01-02T02:15:04.085Z,101745.84
2023-01-02T02:16:19.095Z,101742.98
2023-01-02T02:17:55.468Z,101743.19
2023-01-02T02:19:15.348Z,101741.06
2023-01-02T02:20:58.608Z,101739.76
2023-01-02T02:22:41.568Z,101736.77
2023-01-02T02:23:59.528Z,101736.20
2023-01-02T02:25:31.923Z,101736.52
2023-01-02T02:26:48.050Z,101730.09
2023-01-02T02:28:09.271Z,101734.15
2023-01-02T02:29:49.418Z,101735.56
2023-01-02T02:33:04.671Z,101733.56
2023-01-02T02:34:25.280Z,101734.02
2023-01-02T02:35:56.029Z,101733.39
2023-01-02T02:37:13.641Z,101733.45
2023-01-02T02:38:25.511Z,101737.81
2023-01-02T02:39:43.869Z,101732.49
2023-01-02T02:41:29.281Z,101731.09
2023-01-02T02:43:15.683Z,101728.95
2023-01-02T02:44:39.183Z,101726.09
2023-01-02T02:46:20.460Z,101722.30
2023-01-02T02:47:29.208Z,101720.11
2023-01-02T02:48:41.665Z,101713.55
2023-01-02T02:50:07.059Z,101716.02
2023-01-02T02:51:24.909Z,101713.46
2023-01-02T02:52:43.812Z,101710.50
2023-01-02T02:54:03.537Z,101709.92
2023-01-02T02:55:41.555Z,101706.52
2023-01-02T02:56:47.372Z,101704.86
2023-01-02T02:57:53.178Z,101702.55
2023-01-02T02:58:56.558Z,101703.14
2023-01-02T03:00:00.105Z,101702.69
2023-01-02T03:01:08.691Z,101705.42
2023-01-02T03:02:16.927Z,101703.44
2023-01-02T03:03:22.970Z,101702.27
2023-01-02T03:04:26.072Z,101702.06
2023-01-02T03:05:37.428Z,101702.64
2023-01-02T03:07:11.582Z,101702.57
2023-01-02T03:08:33.003Z,101697.83
2023-01-02T03:09:50.168Z,101692.31
2023-01-02T03:11:00.013Z,101695.67
2023-01-02T03:12:02.924Z,101692.73
2023-01-02T03:13:08.828Z,101693.45
2023-01-02T03:14:29.333Z,101694.44
2023-01-02T03:15:58.599Z,101696.13
2023-01-02T03:17:10.366Z,101698.23
2023-01-02T03:18:25.457Z,101694.05
2023-01-02T03:19:49.843Z,101692.31
2023-01-02T03:21:02.808Z,101692.35
2023-01-02T03:22:13.583Z,101687.60
2023-01-02T03:23:22.027Z,101692.59
2023-01-02T03:24:26.045Z,101688.80
2023-01-02T03:25:31.973Z,101687.36
2023-01-02T03:26:39.577Z,101684.54
2023-01-02T03:27:45.538Z,101683.55
2023-01-02T03:28:56.313Z,101686.19
2023-01-02T03:30:07.958Z,101684.83
2023-01-02T03:31:18.976Z,101681.91
2023-01-02T03:32:27.930Z,101679.28
2023-01-02T03:33:34.706Z,101683.02
2023-01-02T03:34:40.863Z,101682.27
2023-01-02T03:35:50.917Z,101680.25
2023-01-02T03:37:01.076Z,101673.98
2023-01-02T03:38:09.124Z,101674.42
2023-01-02T03:39:18.874Z,101671.38
2023-01-02T03:40:35.352Z,101669.98
2023-01-02T03:41:43.480Z,101673.33
2023-01-02T03:42:55.407Z,101676.95
2023-01-02T03:44:01.380Z,101674.06
2023-01-02T03:45:09.617Z,101672.02
2023-01-02T03:46:19.297Z,101669.14
2023-01-02T03:47:37.455Z,101672.01
2023-01-02T03:48:56.470Z,101668.98
2023-01-02T03:50:03.891Z,101668.73
2023-01-02T03:51:07.792Z,101665.69
2023-01-02T03:52:11.047Z,101664.62
2023-01-02T03:53:14.266Z,101662.51
2023-01-02T03:54:18.996Z,101654.88
2023-01-02T03:55:25.736Z,101651.40
2023-01-02T03:56:43.643Z,101648.85
2023-01-02T03:58:00.512Z,101647.25
2023-01-02T03:59:09.172Z,101639.13
2023-01-02T04:00:16.489Z,101641.83
2023-01-02T04:01:40.872Z,101638.69
2023-01-02T04:03:06.261Z,101636.79
2023-01-02T04:04:19.080Z,101636.15
2023-01-02T04:05:30.379Z,101636.36
2023-01-02T04:06:39.252Z,101636.33
2023-01-02T04:07:58.516Z,101636.04
2023-01-02T04:09:12.469Z,101632.52
2023-01-02T04:10:16.313Z,101630.45
2023-01-02T04:11:21.559Z,101628.40
2023-01-02T04:12:26.789Z,101624.55
2023-01-02T04:13:37.648Z,101625.79
2023-01-02T04:14:46.339Z,101621.39
2023-01-02T04:15:51.155Z,101622.56
2023-01-02T04:16:56.805Z,101623.59
2023-01-02T04:18:05.224Z,101626.81
2023-01-02T04:19:24.377Z,101622.41
2023-01-02T04:20:31.994Z,101622.02
2023-01-02T04:21:39.352Z,101623.65
2023-01-02T04:22:57.707Z,101624.13
2023-01-02T04:24:10.171Z,101620.66
2023-01-02T04:25:15.862Z,101625.13
2023-01-02T04:26:24.955Z,101624.58
2023-01-02T04:27:34.987Z,101620.70
2023-01-02T04:28:38.664Z,101618.02
2023-01-02T04:29:42.068Z,101619.02
2023-01-02T04:30:51.238Z,101617.37
2023-01-02T04:32:07.657Z,101613.03
2023-01-02T04:33:12.272Z,101608.61
2023-01-02T04:34:17.477Z,101610.25
2023-01-02T04:35:23.424Z,101609.23
2023-01-02T04:36:26.577Z,101607.26
2023-01-02T04:37:35.881Z,101605.39
2023-01-02T04:38:39.401Z,101605.06
2023-01-02T04:39:42.677Z,101606.02
2023-01-02T04:40:45.889Z,101608.33
2023-01-02T04:41:48.969Z,101611.79
2023-01-02T04:42:52.230Z,101609.39
2023-01-02T04:43:59.053Z,101609.77
2023-01-02T04:45:02.328Z,101610.45
2023-01-02T04:46:05.646Z,101609.94
2023-01-02T04:47:09.594Z,101615.89
2023-01-02T04:48:12.575Z,101613.15
2023-01-02T04:49:15.676Z,101614.46
2023-01-02T04:50:18.998Z,101611.70
2023-01-02T04:51:23.073Z,101605.35
2023-01-02T04:52:26.083Z,101603.33
2023-01-02T04:53:29.098Z,101598.58
2023-01-02T04:54:32.068Z,101597.80
2023-01-02T04:55:35.192Z,101588.84
2023-01-02T04:56:38.394Z,101593.71
2023-01-02T04:57:41.465Z,101582.92
2023-01-02T04:58:45.943Z,101582.91
2023-01-02T04:59:48.985Z,101579.33
2023-01-02T05:00:52.118Z,101582.38
2023-01-02T05:01:55.512Z,101580.64
2023-01-02T05:02:58.774Z,101578.45
2023-01-02T05:04:02.024Z,101574.78
2023-01-02T05:05:06.768Z,101576.17
2023-01-02T05:06:10.359Z,101574.57
2023-01-02T05:07:13.493Z,101573.28
2023-01-02T05:08:16.828Z,101573.73
2023-01-02T05:09:19.899Z,101572.77
2023-01-02T05:10:22.844Z,101569.12
2023-01-02T05:11:26.109Z,101563.28
2023-01-02T05:12:29.173Z,101561.35
2023-01-02T05:13:32.149Z,101563.54
2023-01-02T05:14:35.277Z,101560.98
2023-01-02T05:15:38.366Z,101557.70
2023-01-02T05:16:41.674Z,101556.48
2023-01-02T05:17:44.815Z,101557.27
2023-01-02T05:18:47.841Z,101555.98
2023-01-02T05:19:50.795Z,101556.77
2023-01-02T05:20:53.845Z,101556.80
2023-01-02T05:22:15.969Z,101555.46
2023-01-02T05:23:37.593Z,101551.94
2023-01-02T05:24:40.622Z,101548.95
2023-01-02T05:25:43.580Z,101544.65
2023-01-02T05:26:46.556Z,101551.97
2023-01-02T05:27:53.343Z,101549.77
2023-01-02T05:28:56.753Z,101547.87
2023-01-02T05:29:59.705Z,101537.09
2023-01-02T05:31:02.738Z,101526.06
2023-01-02T05:32:05.904Z,101532.69
2023-01-02T05:33:09.024Z,101535.97
2023-01-02T05:34:16.110Z,101534.88
2023-01-02T05:35:19.103Z,101528.75
2023-01-02T05:36:24.051Z,101524.52
2023-01-02T05:37:27.274Z,101520.15
2023-01-02T05:38:32.279Z,101519.92
2023-01-02T05:39:35.231Z,101516.98
2023-01-02T05:40:38.171Z,101516.27
2023-01-02T05:41:41.929Z,101519.34
2023-01-02T05:42:45.032Z,101516.82
2023-01-02T05:43:48.790Z,101517.57
2023-01-02T05:44:52.408Z,101515.27
2023-01-02T05:45:55.320Z,101513.99
2023-01-02T05:46:58.352Z,101512.10
2023-01-02T05:48:01.627Z,101510.48
2023-01-02T05:49:06.265Z,101508.86
2023-01-02T05:50:09.664Z,101509.74
2023-01-02T05:51:16.484Z,101507.27
2023-01-02T05:52:19.484Z,101508.84
2023-01-02T05:53:23.144Z,101507.25
2023-01-02T05:54:26.222Z,101505.75
2023-01-02T05:55:29.243Z,101509.07
2023-01-02T05:56:32.316Z,101505.92
2023-01-02T05:57:35.599Z,101504.61
2023-01-02T05:58:40.409Z,101502.30
2023-01-02T05:59:43.596Z,101502.55
2023-01-02T06:00:46.639Z,101499.72
2023-01-02T06:01:49.942Z,101501.25
2023-01-02T06:02:53.327Z,101501.21
2023-01-02T06:03:58.547Z,101497.04
2023-01-02T06:05:01.636Z,101490.55
2023-01-02T06:06:10.439Z,101488.13
2023-01-02T06:07:13.505Z,101487.27
2023-01-02T06:08:17.098Z,101486.27
2023-01-02T06:09:20.437Z,101484.52
2023-01-02T06:10:23.596Z,101485.75
2023-01-02T06:11:27.672Z,101489.09
2023-01-02T06:12:30.662Z,101483.95
2023-01-02T06:13:35.794Z,101480.42
2023-01-02T06:14:38.878Z,101481.74
2023-01-02T06:15:42.133Z,101480.77
2023-01-02T06:16:45.253Z,101478.08
2023-01-02T06:17:48.329Z,101481.84
2023-01-02T06:18:52.128Z,101482.25
2023-01-02T06:19:55.471Z,101485.83
2023-01-02T06:21:02.901Z,101486.16
2023-01-02T06:22:05.997Z,101487.06
2023-01-02T06:23:09.021Z,101485.08
2023-01-02T06:24:12.316Z,101485.95
2023-01-02T06:25:15.689Z,101479.96
2023-01-02T06:26:20.962Z,101479.31
2023-01-02T06:27:24.022Z,101473.58
2023-01-02T06:28:28.504Z,101471.56
2023-01-02T06:29:31.821Z,101470.62
2023-01-02T06:30:35.027Z,101471.22
2023-01-02T06:31:39.991Z,101470.46
2023-01-02T06:32:43.598Z,101467.21
2023-01-02T06:33:46.848Z,101466.77
2023-01-02T06:34:50.041Z,101462.91
2023-01-02T06:36:01.092Z,101464.14
2023-01-02T06:37:09.522Z,101463.65
2023-01-02T06:38:13.211Z,101462.41
2023-01-02T06:39:16.317Z,101458.86
2023-01-02T06:40:19.955Z,101462.75
2023-01-02T06:41:23.359Z,101458.70
2023-01-02T06:42:26.606Z,101459.07
2023-01-02T06:43:31.584Z,101455.93
2023-01-02T06:44:34.878Z,101453.98
2023-01-02T06:45:37.807Z,101450.85
2023-01-02T06:46:40.891Z,101446.30
2023-01-02T06:47:44.087Z,101447.41
2023-01-02T06:48:47.915Z,101446.86
2023-01-02T06:49:51.016Z,101445.21
2023-01-02T06:50:54.770Z,101442.64
2023-01-02T06:51:57.798Z,101438.59
2023-01-02T06:53:00.959Z,101438.84
2023-01-02T06:54:04.091Z,101434.88
2023-01-02T06:55:07.568Z,101436.36
2023-01-02T06:56:11.842Z,101437.55
2023-01-02T06:57:16.025Z,101436.23
2023-01-02T06:58:20.521Z,101434.61
2023-01-02T06:59:23.959Z,101433.30
2023-01-02T07:00:28.399Z,101433.13
2023-01-02T07:01:31.492Z,101433.09
2023-01-02T07:02:34.612Z,101433.34
2023-01-02T07:03:38.195Z,101430.77
2023-01-02T07:04:41.793Z,101429.28
2023-01-02T07:05:45.458Z,101419.91
2023-01-02T07:06:48.558Z,101418.38
2023-01-02T07:07:51.533Z,101411.87
2023-01-02T07:08:54.682Z,101410.07
2023-01-02T07:09:57.771Z,101412.52
2023-01-02T07:11:09.027Z,101408.92
2023-01-02T07:12:14.623Z,101410.42
2023-01-02T07:13:17.628Z,101409.15
2023-01-02T07:14:21.115Z,101409.67
2023-01-02T07:15:24.243Z,101407.08
2023-01-02T07:16:27.510Z,101405.19
2023-01-02T07:17:31.807Z,101401.45
2023-01-02T07:18:35.984Z,101405.73
2023-01-02T07:19:39.112Z,101398.80
2023-01-02T07:20:42.084Z,101396.55
2023-01-02T07:21:45.107Z,101394.36
2023-01-02T07:22:52.552Z,101394.61
2023-01-02T07:23:55.818Z,101396.92
2023-01-02T07:24:59.167Z,101391.85
2023-01-02T07:26:04.074Z,101393.85
2023-01-02T07:27:07.229Z,101388.88
2023-01-02T07:28:10.245Z,101385.09
2023-01-02T07:29:13.371Z,101378.66
2023-01-02T07:30:16.770Z,101376.52
2023-01-02T07:31:21.540Z,101371.77
2023-01-02T07:32:27.496Z,101366.65
2023-01-02T07:33:32.233Z,101366.94
2023-01-02T07:34:35.332Z,101367.48
2023-01-02T07:35:38.613Z,101362.41
2023-01-02T07:36:41.712Z,101361.27
2023-01-02T07:37:44.906Z,101359.16
2023-01-02T07:38:55.335Z,101356.94
2023-01-02T07:39:58.730Z,101357.96
2023-01-02T07:41:01.856Z,101356.39
2023-01-02T07:42:05.157Z,101355.98
2023-01-02T07:43:08.155Z,101355.41
2023-01-02T07:44:14.041Z,101355.30
2023-01-02T07:45:17.158Z,101360.00
2023-01-02T07:46:20.520Z,101359.77
2023-01-02T07:47:24.510Z,101358.05
2023-01-02T07:48:29.428Z,101361.52
2023-01-02T07:49:32.468Z,101366.73
2023-01-02T07:50:35.565Z,101365.89
2023-01-02T07:51:38.741Z,101368.25
2023-01-02T07:52:44.757Z,101372.20
2023-01-02T07:53:48.036Z,101369.73
2023-01-02T07:54:51.101Z,101374.39
2023-01-02T07:55:55.536Z,101375.14
2023-01-02T07:56:58.725Z,101373.79
2023-01-02T07:58:01.989Z,101372.35
2023-01-02T07:59:05.327Z,101367.05
2023-01-02T08:00:09.107Z,101363.32
2023-01-02T08:01:15.578Z,101360.89
2023-01-02T08:02:19.088Z,101357.64
2023-01-02T08:03:23.103Z,101359.09
2023-01-02T08:04:26.338Z,101356.62
2023-01-02T08:05:29.407Z,101350.80
2023-01-02T08:06:33.749Z,101350.46
2023-01-02T08:07:44.447Z,101346.71
2023-01-02T08:08:48.077Z,101345.69
2023-01-02T08:09:51.242Z,101343.62
2023-01-02T08:10:54.290Z,101341.81
2023-01-02T08:12:04.778Z,101342.48
2023-01-02T08:13:08.299Z,101339.84
2023-01-02T08:14:11.254Z,101341.81
2023-01-02T08:15:14.265Z,101339.34
2023-01-02T08:16:21.744Z,101341.02
2023-01-02T08:17:24.893Z,101341.30
2023-01-02T08:18:28.151Z,101341.09
2023-01-02T08:19:32.256Z,101343.04
2023-01-02T08:20:35.586Z,101340.25
2023-01-02T08:21:38.597Z,101341.90
2023-01-02T08:22:41.891Z,101341.41
2023-01-02T08:23:45.290Z,101339.59
2023-01-02T08:24:48.715Z,101337.75
2023-01-02T08:25:57.335Z,101336.81
2023-01-02T08:27:00.761Z,101340.35
2023-01-02T08:28:04.029Z,101342.95
2023-01-02T08:29:09.239Z,101343.79
2023-01-02T08:30:12.566Z,101343.83
2023-01-02T08:31:18.836Z,101343.29
2023-01-02T08:32:21.933Z,101343.45
2023-01-02T08:33:24.937Z,101342.88
2023-01-02T08:34:28.058Z,101337.83
2023-01-02T08:35:38.404Z,101337.13
2023-01-02T08:36:42.605Z,101333.13
2023-01-02T08:37:50.443Z,101328.94
2023-01-02T08:38:54.617Z,101326.38
2023-01-02T08:40:00.608Z,101321.34
2023-01-02T08:41:05.769Z,101315.17
2023-01-02T08:42:09.070Z,101314.97
2023-01-02T08:43:13.470Z,101314.75
2023-01-02T08:44:16.728Z,101316.67
2023-01-02T08:45:19.844Z,101313.33
2023-01-02T08:46:22.847Z,101311.96
2023-01-02T08:47:25.932Z,101314.47
2023-01-02T08:48:28.923Z,101314.80
2023-01-02T08:49:32.392Z,101317.08
2023-01-02T08:50:35.612Z,101318.23
2023-01-02T08:51:38.631Z,101319.59
2023-01-02T08:52:41.692Z,101320.67
2023-01-02T08:53:44.652Z,101319.95
2023-01-02T08:54:47.948Z,101317.16
2023-01-02T08:55:51.104Z,101315.04
2023-01-02T08:56:54.198Z,101317.61
2023-01-02T08:57:57.332Z,101314.52
2023-01-02T08:59:06.533Z,101315.67
2023-01-02T09:00:12.411Z,101311.78
2023-01-02T09:01:15.639Z,101308.86
2023-01-02T09:02:18.953Z,101302.70
2023-01-02T09:03:22.483Z,101299.59
2023-01-02T09:04:25.522Z,101297.70
2023-01-02T09:05:31.117Z,101305.09
2023-01-02T09:06:36.127Z,101304.70
2023-01-02T09:07:39.206Z,101305.20
2023-01-02T09:08:42.234Z,101300.66
2023-01-02T09:09:45.301Z,101296.02
2023-01-02T09:10:51.529Z,101296.14
2023-01-02T09:11:54.811Z,101300.20
2023-01-02T09:12:59.201Z,101302.86
2023-01-02T09:14:04.579Z,101298.69
2023-01-02T09:15:09.385Z,101296.30
2023-01-02T09:16:12.751Z,101295.48
2023-01-02T09:17:16.285Z,101292.52
2023-01-02T09:18:22.991Z,101292.20
2023-01-02T09:19:29.740Z,101289.45
2023-01-02T09:20:32.764Z,101288.73
2023-01-02T09:21:36.068Z,101288.88
2023-01-02T09:22:40.685Z,101286.65
2023-01-02T09:23:43.887Z,101290.98
2023-01-02T09:24:48.033Z,101291.06
2023-01-02T09:25:51.446Z,101289.02
2023-01-02T09:27:18.377Z,101289.48
2023-01-02T09:29:03.557Z,101284.98
2023-01-02T09:31:48.974Z,101271.28
2023-01-02T09:32:52.501Z,101265.58
2023-01-02T09:34:02.929Z,101264.77
2023-01-02T09:35:06.571Z,101260.86
2023-01-02T09:36:12.603Z,101259.59
2023-01-02T09:37:17.567Z,101257.46
2023-01-02T09:38:20.788Z,101256.52
2023-01-02T09:39:30.303Z,101258.56
2023-01-02T09:40:38.974Z,101255.94
2023-01-02T09:41:47.143Z,101252.90
2023-01-02T09:42:53.644Z,101249.85
2023-01-02T09:44:01.014Z,101250.52
2023-01-02T09:45:09.295Z,101250.83
2023-01-02T09:46:51.162Z,101248.65
2023-01-02T09:47:58.443Z,101244.77
2023-01-02T09:49:02.848Z,101244.77
2023-01-02T09:50:25.215Z,101245.55
2023-01-02T09:51:28.739Z,101242.52
2023-01-02T09:52:45.108Z,101240.88
2023-01-02T09:53:48.357Z,101234.63
2023-01-02T09:54:53.134Z,101237.55
2023-01-02T09:56:17.734Z,101235.46
2023-01-02T09:57:29.852Z,101235.72
2023-01-02T09:58:38.723Z,101228.09
2023-01-02T10:00:10.951Z,101230.16
2023-01-02T10:01:26.938Z,101236.27
2023-01-02T10:02:54.657Z,101234.18
2023-01-02T10:04:19.825Z,101234.27
2023-01-02T10:06:01.199Z,101230.14
2023-01-02T10:07:23.251Z,101227.35
2023-01-02T10:08:59.433Z,101224.81
2023-01-02T10:10:46.767Z,101228.05
2023-01-02T10:12:17.957Z,101216.42
2023-01-02T10:14:08.916Z,101210.86
2023-01-02T10:15:05.616Z,101206.59
2023-01-02T10:16:17.617Z,101204.76
2023-01-02T10:17:22.164Z,101205.35
2023-01-02T10:18:41.470Z,101206.68
2023-01-02T10:20:03.533Z,101203.83
2023-01-02T10:21:21.134Z,101207.18
2023-01-02T10:22:42.258Z,101203.52
2023-01-02T10:23:55.074Z,101207.31
2023-01-02T10:25:08.461Z,101198.26
2023-01-02T10:26:28.285Z,101198.87
2023-01-02T10:27:38.307Z,101196.30
2023-01-02T10:28:46.988Z,101193.09
2023-01-02T10:30:17.173Z,101193.59
2023-01-02T10:31:48.638Z,101188.93
2023-01-02T10:33:19.052Z,101188.13
2023-01-02T10:34:26.574Z,101189.26
2023-01-02T10:35:39.242Z,101187.85
2023-01-02T10:36:43.955Z,101185.74
2023-01-02T10:37:47.035Z,101184.18
2023-01-02T10:38:50.997Z,101186.60
2023-01-02T10:39:54.180Z,101181.44
2023-01-02T10:40:57.395Z,101179.09
2023-01-02T10:42:00.786Z,101174.95
2023-01-02T10:43:04.560Z,101173.73
2023-01-02T10:44:19.954Z,101173.51
2023-01-02T10:45:24.175Z,101167.94
2023-01-02T10:46:39.005Z,101165.48
2023-01-02T10:47:42.073Z,101159.62
2023-01-02T10:48:51.833Z,101161.52
2023-01-02T10:49:57.490Z,101160.88
2023-01-02T10:51:11.084Z,101162.09
2023-01-02T10:52:41.728Z,101158.11
2023-01-02T10:54:04.606Z,101161.26
2023-01-02T10:55:08.430Z,101156.83
2023-01-02T10:56:20.569Z,101158.05
2023-01-02T10:57:46.014Z,101157.39
2023-01-02T10:58:53.284Z,101150.04
2023-01-02T11:00:00.054Z,101153.36
2023-01-02T11:01:07.007Z,101156.05
2023-01-02T11:02:30.399Z,101159.65
2023-01-02T11:03:34.437Z,101153.64
2023-01-02T11:04:44.029Z,101159.50
2023-01-02T11:05:50.899Z,101164.30
2023-01-02T11:07:00.682Z,101161.08
2023-01-02T11:08:13.673Z,101160.89
2023-01-02T11:09:29.542Z,101157.71
2023-01-02T11:10:37.408Z,101155.64
2023-01-02T11:11:52.863Z,101157.04
2023-01-02T11:12:56.453Z,101151.78
2023-01-02T11:14:08.544Z,101149.38
2023-01-02T11:15:13.720Z,101145.73
2023-01-02T11:16:18.948Z,101134.95
2023-01-02T11:17:24.840Z,101140.13
2023-01-02T11:18:33.586Z,101139.18
2023-01-02T11:19:42.695Z,101144.77
2023-01-02T11:20:52.232Z,101147.11
2023-01-02T11:21:56.632Z,101142.71
2023-01-02T11:23:03.142Z,101140.42
2023-01-02T11:24:14.458Z,101138.13
2023-01-02T11:25:24.597Z,101141.20
2023-01-02T11:26:30.687Z,101144.55
2023-01-02T11:27:37.112Z,101138.56
2023-01-02T11:28:41.476Z,101140.74
2023-01-02T11:29:47.990Z,101137.33
2023-01-02T11:30:54.456Z,101141.70
2023-01-02T11:32:01.791Z,101139.69
2023-01-02T11:33:14.086Z,101142.48
2023-01-02T11:34:24.572Z,101144.16
2023-01-02T11:35:38.882Z,101139.63
2023-01-02T11:36:48.366Z,101129.95
2023-01-02T11:37:52.845Z,101126.02
2023-01-02T11:38:59.420Z,101126.84
2023-01-02T11:40:07.031Z,101125.77
2023-01-02T11:41:46.037Z,101121.84
2023-01-02T11:43:11.531Z,101120.79
2023-01-02T11:44:23.510Z,101118.33
2023-01-02T11:45:27.312Z,101120.72
2023-01-02T11:46:38.253Z,101115.64
2023-01-02T11:47:56.312Z,101115.37
2023-01-02T11:49:18.209Z,101116.30
2023-01-02T11:50:26.330Z,101108.35
2023-01-02T11:51:33.354Z,101112.57
2023-01-02T11:53:02.087Z,101109.77
2023-01-02T11:54:14.714Z,101112.23
2023-01-02T11:55:43.831Z,101108.08
2023-01-02T11:56:48.096Z,101111.91
2023-01-02T11:58:06.092Z,101116.08
2023-01-02T11:59:31.131Z,101116.20
2023-01-02T12:00:38.863Z,101108.00
2023-01-02T12:02:20.902Z,101117.16
2023-01-02T12:03:27.226Z,101113.76
2023-01-02T12:04:33.670Z,101109.91
2023-01-02T12:06:01.555Z,101098.41
2023-01-02T12:07:23.416Z,101106.88
2023-01-02T12:09:04.038Z,101107.21
2023-01-02T12:10:20.771Z,101105.60
2023-01-02T12:12:13.572Z,101100.55
2023-01-02T12:13:31.649Z,101089.41
2023-01-02T12:14:54.922Z,101094.91
2023-01-02T12:16:20.666Z,101087.60
2023-01-02T12:17:42.129Z,101077.02
2023-01-02T12:18:52.317Z,101071.84
2023-01-02T12:20:06.474Z,101068.69
2023-01-02T12:21:24.496Z,101062.81
2023-01-02T12:22:49.578Z,101070.13
2023-01-02T12:23:58.819Z,101067.41
2023-01-02T12:25:37.286Z,101062.02
2023-01-02T12:26:46.619Z,101065.77
2023-01-02T12:28:05.187Z,101059.21
2023-01-02T12:29:48.689Z,101060.81
2023-01-02T12:31:13.684Z,101059.20
2023-01-02T12:32:39.380Z,101061.42
2023-01-02T12:33:48.085Z,101061.45
2023-01-02T12:35:13.121Z,101059.34
2023-01-02T12:36:42.831Z,101063.48
2023-01-02T12:37:54.329Z,101058.88
2023-01-02T12:39:06.268Z,101055.20
2023-01-02T12:40:43.894Z,101057.89
2023-01-02T12:42:08.101Z,101061.29
2023-01-02T12:43:11.142Z,101060.75
2023-01-02T12:44:55.729Z,101063.17
2023-01-02T12:46:26.969Z,101060.44
2023-01-02T12:47:51.088Z,101056.50
2023-01-02T12:49:13.363Z,101053.93
2023-01-02T12:50:38.295Z,101052.27
2023-01-02T12:51:57.209Z,101046.83
2023-01-02T12:53:09.691Z,101043.41
2023-01-02T12:54:51.030Z,101049.47
2023-01-02T12:56:07.421Z,101051.65
2023-01-02T12:57:32.088Z,101051.31
2023-01-02T12:59:29.711Z,101056.19
2023-01-02T13:01:00.682Z,101060.09
2023-01-02T13:02:28.882Z,101058.58
2023-01-02T13:03:53.240Z,101050.87
2023-01-02T13:05:02.260Z,101048.02
2023-01-02T13:06:45.437Z,101049.80
2023-01-02T13:07:48.125Z,101037.58
2023-01-02T13:09:03.345Z,101044.81
2023-01-02T13:10:07.529Z,101047.16